Time;durP1;ratioP1;P1;durP2;ratioP2;P2;SDS_P1;SDS_P2;PMS_P1;PMS_P2;Temp;Humidity;BMP_temperature;BMP_pressure;BME280_temperature;BME280_humidity;BME280_pressure;Samples;Min_cycle;Max_cycle;Signal;HPM_P1;HPM_P2
2021/05/11 00:01:11;;;;;;;12.00;7.55;;;13.60;99.90;;;;;;4946323;28;20515;-79
2021/05/11 00:03:37;;;;;;;14.32;9.45;;;13.60;99.90;;;;;;4938512;28;20434;-79
2021/05/11 00:06:03;;;;;;;14.52;8.50;;;13.50;99.90;;;;;;4932864;28;20036;-79
2021/05/11 00:08:29;;;;;;;12.77;8.18;;;13.50;99.90;;;;;;4926432;29;20036;-79
2021/05/11 00:10:54;;;;;;;16.10;9.68;;;13.40;99.90;;;;;;4938772;28;20035;-79
2021/05/11 00:13:20;;;;;;;13.02;8.82;;;13.40;99.90;;;;;;4930564;28;20134;-79
2021/05/11 00:15:46;;;;;;;12.93;9.65;;;13.30;99.90;;;;;;4938591;28;20117;-79
2021/05/11 00:18:13;;;;;;;15.68;10.23;;;13.20;99.90;;;;;;4939435;28;20080;-79
2021/05/11 00:20:39;;;;;;;21.17;7.88;;;13.20;99.90;;;;;;4938046;29;20258;-79
2021/05/11 00:23:04;;;;;;;9.63;7.53;;;13.10;99.90;;;;;;4946846;28;20039;-79
2021/05/11 00:25:30;;;;;;;11.60;8.05;;;13.10;99.90;;;;;;4937813;28;20046;-79
2021/05/11 00:27:56;;;;;;;9.88;7.65;;;13.10;99.90;;;;;;4943945;29;20035;-79
2021/05/11 00:30:22;;;;;;;9.10;6.35;;;13.10;99.90;;;;;;4944738;28;20073;-79
2021/05/11 00:32:49;;;;;;;9.27;6.85;;;13.10;99.90;;;;;;4939644;29;20499;-79
2021/05/11 00:35:14;;;;;;;10.05;7.03;;;13.10;99.90;;;;;;4930989;28;20040;-79
2021/05/11 00:37:40;;;;;;;11.38;6.60;;;13.00;99.90;;;;;;4942916;29;20376;-79
2021/05/11 00:40:07;;;;;;;9.93;6.32;;;13.10;99.90;;;;;;4942566;28;20078;-79
2021/05/11 00:42:33;;;;;;;9.48;5.35;;;13.10;99.90;;;;;;4944678;29;20035;-79
2021/05/11 00:44:59;;;;;;;7.70;4.97;;;13.10;99.90;;;;;;4943037;28;20118;-79
2021/05/11 00:47:25;;;;;;;7.22;5.68;;;13.10;99.90;;;;;;4941850;29;20114;-79
2021/05/11 00:49:50;;;;;;;8.25;5.75;;;13.10;99.90;;;;;;4946135;28;20074;-79
2021/05/11 00:52:17;;;;;;;9.90;5.82;;;13.10;99.90;;;;;;4944464;28;20027;-79
2021/05/11 00:54:43;;;;;;;11.32;4.80;;;13.10;99.90;;;;;;4942667;28;20127;-79
2021/05/11 00:57:10;;;;;;;5.85;4.32;;;13.00;99.90;;;;;;4939089;29;20042;-79
2021/05/11 00:59:37;;;;;;;7.10;5.10;;;12.90;99.90;;;;;;4938928;28;20075;-79
2021/05/11 01:02:06;;;;;;;11.40;6.03;;;12.90;99.90;;;;;;4938596;28;20031;-79
2021/05/11 01:04:32;;;;;;;12.45;6.13;;;12.80;99.90;;;;;;4937793;28;20040;-79
2021/05/11 01:06:57;;;;;;;9.18;6.57;;;12.90;99.90;;;;;;4938108;28;20034;-79
2021/05/11 01:09:24;;;;;;;9.07;5.50;;;12.90;99.90;;;;;;4943825;28;20039;-79
2021/05/11 01:11:50;;;;;;;11.02;5.40;;;12.90;99.90;;;;;;4938891;29;20038;-79
2021/05/11 01:14:17;;;;;;;8.98;5.50;;;12.90;99.90;;;;;;4938452;28;20059;-78
2021/05/11 01:16:44;;;;;;;9.60;6.22;;;12.80;99.90;;;;;;4944569;28;20046;-78
2021/05/11 01:24:31;;;;;;;11.30;7.72;;;12.70;99.90;;;;;;4943697;28;20050;-78
2021/05/11 02:23:09;;;;;;;7.07;3.97;;;12.70;99.90;;;;;;4941948;29;20532;-79
2021/05/11 02:25:35;;;;;;;7.95;3.90;;;12.80;99.90;;;;;;4941628;28;20044;-79
2021/05/11 02:28:00;;;;;;;8.27;4.45;;;12.70;99.90;;;;;;4941392;28;20031;-79
2021/05/11 02:30:26;;;;;;;7.80;5.20;;;12.70;99.90;;;;;;4942537;28;20043;-79
2021/05/11 02:32:52;;;;;;;16.33;6.85;;;12.60;99.90;;;;;;4942540;28;20030;-79
2021/05/11 02:35:19;;;;;;;12.80;6.13;;;12.60;99.90;;;;;;4944656;28;20640;-79
2021/05/11 02:37:46;;;;;;;8.02;4.60;;;12.60;99.90;;;;;;4948470;28;20389;-79
2021/05/11 02:40:13;;;;;;;7.43;4.47;;;12.70;99.90;;;;;;4943487;28;20071;-79
2021/05/11 02:42:40;;;;;;;8.45;4.40;;;12.80;99.90;;;;;;4945765;28;20032;-79
2021/05/11 02:45:10;;;;;;;8.75;4.18;;;12.70;99.90;;;;;;4939354;28;20039;-79
2021/05/11 02:47:47;;;;;;;6.15;2.50;;;12.60;99.90;;;;;;4939554;28;20038;-79
2021/05/11 02:50:18;;;;;;;6.22;3.03;;;12.60;99.90;;;;;;4940636;28;20031;-79
2021/05/11 02:52:44;;;;;;;5.68;3.10;;;12.70;99.90;;;;;;4961362;28;20106;-79
2021/05/11 02:55:10;;;;;;;8.65;3.25;;;12.70;99.90;;;;;;4942392;29;20370;-79
2021/05/11 02:57:36;;;;;;;4.35;2.25;;;12.80;99.90;;;;;;4929520;29;20032;-79
2021/05/11 03:00:04;;;;;;;4.90;1.90;;;12.70;99.90;;;;;;4939525;28;20083;-79
2021/05/11 03:02:29;;;;;;;3.97;1.30;;;12.60;99.90;;;;;;4937884;28;20388;-79
2021/05/11 03:04:55;;;;;;;3.35;1.70;;;12.50;99.90;;;;;;4946588;28;20039;-78
2021/05/11 03:07:21;;;;;;;5.40;1.95;;;12.60;99.90;;;;;;4936055;28;20031;-79
2021/05/11 03:09:47;;;;;;;4.47;1.52;;;12.50;99.90;;;;;;4933930;28;20105;-79
2021/05/11 03:12:12;;;;;;;4.68;1.80;;;12.60;99.90;;;;;;4947200;28;20039;-78
2021/05/11 03:14:38;;;;;;;3.25;1.20;;;12.60;99.90;;;;;;4944580;28;20064;-79
2021/05/11 03:17:04;;;;;;;2.67;1.20;;;12.70;99.90;;;;;;4937645;28;20397;-79
2021/05/11 03:19:29;;;;;;;9.20;1.35;;;12.70;99.90;;;;;;4942274;29;20128;-79
2021/05/11 03:21:55;;;;;;;2.90;1.35;;;12.60;99.90;;;;;;4934889;28;20031;-78
2021/05/11 03:24:21;;;;;;;4.93;1.45;;;12.40;99.90;;;;;;4947172;28;20448;-79
2021/05/11 03:26:46;;;;;;;4.20;1.65;;;12.40;99.90;;;;;;4935841;29;20036;-78
2021/05/11 03:29:12;;;;;;;4.57;1.50;;;12.30;99.90;;;;;;4935980;29;20122;-78
2021/05/11 03:31:38;;;;;;;6.10;1.52;;;12.40;99.90;;;;;;4938086;28;20035;-78
2021/05/11 03:34:04;;;;;;;3.30;1.00;;;12.30;99.90;;;;;;4947818;28;20046;-78
2021/05/11 03:36:29;;;;;;;3.92;1.00;;;12.20;99.90;;;;;;4938518;28;20151;-78
2021/05/11 03:38:56;;;;;;;3.28;1.20;;;12.30;99.90;;;;;;4935887;29;20046;-78
2021/05/11 03:41:28;;;;;;;3.60;1.45;;;12.10;99.90;;;;;;4935976;28;20027;-78
2021/05/11 03:44:00;;;;;;;5.63;1.10;;;12.00;99.90;;;;;;4941975;29;20047;-78
2021/05/11 03:46:25;;;;;;;4.20;1.20;;;12.10;99.90;;;;;;4944758;28;20031;-78
2021/05/11 03:48:51;;;;;;;4.13;1.20;;;12.10;99.90;;;;;;4946401;28;20043;-78
2021/05/11 03:51:17;;;;;;;5.25;1.60;;;12.10;99.90;;;;;;4945972;28;20032;-78
2021/05/11 03:53:44;;;;;;;8.80;1.50;;;12.10;99.90;;;;;;4936395;28;20401;-79
2021/05/11 03:56:09;;;;;;;4.57;1.50;;;12.10;99.90;;;;;;4934984;29;20028;-78
2021/05/11 03:58:35;;;;;;;4.55;1.50;;;12.00;99.90;;;;;;4936027;29;20082;-78
2021/05/11 04:01:01;;;;;;;6.13;1.88;;;12.00;99.90;;;;;;4935530;29;20034;-78
2021/05/11 04:03:26;;;;;;;2.85;1.50;;;11.80;99.90;;;;;;4938833;28;20430;-78
2021/05/11 04:05:54;;;;;;;7.28;1.52;;;11.70;99.90;;;;;;4935731;28;20085;-78
2021/05/11 04:10:58;;;;;;;4.68;1.70;;;11.70;99.90;;;;;;4941025;28;20117;-78
2021/05/11 04:18:55;;;;;;;4.90;1.15;;;11.70;99.90;;;;;;4940296;29;20563;-78
2021/05/11 04:21:22;;;;;;;4.75;1.42;;;11.70;99.90;;;;;;4947323;28;20046;-78
2021/05/11 04:23:52;;;;;;;3.25;1.25;;;11.70;99.90;;;;;;4942335;28;20043;-79
2021/05/11 04:26:19;;;;;;;2.30;1.08;;;11.70;99.90;;;;;;4946966;29;20041;-79
2021/05/11 04:28:47;;;;;;;2.63;1.27;;;11.70;99.90;;;;;;4935904;29;20031;-78
2021/05/11 04:31:14;;;;;;;6.03;1.42;;;11.60;99.90;;;;;;4941060;29;20034;-78
2021/05/11 04:33:39;;;;;;;6.45;1.30;;;11.60;99.90;;;;;;4942787;29;20513;-78
2021/05/11 04:36:06;;;;;;;3.15;1.00;;;11.60;99.90;;;;;;4942780;28;20035;-78
2021/05/11 04:38:32;;;;;;;5.45;1.00;;;11.60;99.90;;;;;;4941942;28;20090;-78
2021/05/11 04:40:58;;;;;;;4.57;1.20;;;11.70;99.90;;;;;;4938211;28;20470;-78
2021/05/11 04:43:25;;;;;;;3.67;1.35;;;11.70;99.90;;;;;;4944548;29;20031;-78
2021/05/11 04:46:10;;;;;;;3.15;1.27;;;11.80;99.90;;;;;;4944359;29;20035;-78
2021/05/11 04:48:36;;;;;;;4.45;1.85;;;11.80;99.90;;;;;;4940398;28;20054;-78
2021/05/11 04:51:02;;;;;;;4.30;1.40;;;11.80;99.90;;;;;;4944460;28;20031;-78
2021/05/11 04:53:28;;;;;;;4.30;1.60;;;11.70;99.90;;;;;;4941429;28;20043;-78
2021/05/11 04:55:54;;;;;;;6.90;2.25;;;11.80;99.90;;;;;;4951535;28;20050;-78
2021/05/11 04:58:19;;;;;;;4.78;1.63;;;11.80;99.90;;;;;;4946661;28;20039;-78
2021/05/11 05:00:45;;;;;;;3.67;1.48;;;11.80;99.90;;;;;;4950343;28;20354;-78
2021/05/11 05:03:14;;;;;;;5.32;1.75;;;11.80;99.90;;;;;;4941703;29;20462;-78
2021/05/11 05:05:40;;;;;;;4.95;2.20;;;11.90;99.90;;;;;;4944100;29;20079;-78
2021/05/11 05:08:06;;;;;;;3.80;1.92;;;11.90;99.90;;;;;;4954627;28;20302;-78
2021/05/11 05:10:32;;;;;;;5.47;1.85;;;11.90;99.90;;;;;;4947235;28;20298;-78
2021/05/11 05:12:58;;;;;;;6.78;1.83;;;11.90;99.90;;;;;;4940588;29;20521;-78
2021/05/11 05:15:23;;;;;;;5.63;1.70;;;11.90;99.90;;;;;;4942093;29;20677;-78
2021/05/11 05:17:49;;;;;;;4.68;1.65;;;11.90;99.90;;;;;;4943297;28;20027;-78
2021/05/11 05:20:15;;;;;;;9.68;1.95;;;11.90;99.90;;;;;;4949986;28;20043;-78
2021/05/11 05:22:42;;;;;;;7.32;2.90;;;11.90;99.90;;;;;;4948537;28;20502;-78
2021/05/11 05:25:12;;;;;;;5.70;2.85;;;11.90;99.90;;;;;;4949647;28;20031;-78
2021/05/11 05:30:20;;;;;;;4.55;1.75;;;11.80;99.90;;;;;;4948140;29;20135;-78
2021/05/11 05:32:45;;;;;;;3.67;1.90;;;11.60;99.90;;;;;;4944066;29;20032;-78
2021/05/11 05:35:11;;;;;;;3.83;1.88;;;11.70;99.90;;;;;;4932667;29;20079;-78
2021/05/11 05:37:37;;;;;;;3.13;0.85;;;11.70;99.90;;;;;;4946382;29;20450;-77
2021/05/11 05:40:05;;;;;;;1.83;0.73;;;11.70;99.90;;;;;;4949300;28;20481;-77
2021/05/11 05:42:31;;;;;;;1.65;0.50;;;11.70;99.90;;;;;;4943160;28;20035;-77
2021/05/11 05:44:57;;;;;;;5.38;0.45;;;11.60;99.90;;;;;;4945509;28;20090;-78
2021/05/11 05:47:23;;;;;;;2.28;0.50;;;11.50;99.90;;;;;;4946501;28;20027;-78
2021/05/11 05:49:52;;;;;;;2.38;0.55;;;11.40;99.90;;;;;;4944784;28;20171;-77
2021/05/11 05:52:22;;;;;;;3.55;0.30;;;11.30;99.90;;;;;;4927280;29;20485;-77
2021/05/11 05:54:48;;;;;;;3.72;0.20;;;11.30;99.90;;;;;;4936933;29;20039;-77
2021/05/11 05:57:14;;;;;;;1.15;0.30;;;11.30;99.90;;;;;;4941337;29;20377;-77
2021/05/11 05:59:42;;;;;;;2.17;0.22;;;11.20;99.90;;;;;;4940694;28;20043;-77
2021/05/11 06:02:16;;;;;;;2.08;0.82;;;11.10;99.90;;;;;;4939137;28;20027;-77
2021/05/11 06:04:43;;;;;;;2.58;0.22;;;11.20;99.90;;;;;;4946103;28;20039;-78
2021/05/11 06:07:08;;;;;;;1.85;0.20;;;11.00;99.90;;;;;;4948586;28;20020;-78
2021/05/11 06:09:34;;;;;;;2.58;0.35;;;11.10;99.90;;;;;;4940312;28;20039;-78
2021/05/11 06:12:05;;;;;;;2.97;0.50;;;11.10;99.90;;;;;;4939896;28;20188;-77
2021/05/11 06:17:35;;;;;;;1.65;0.30;;;11.00;99.90;;;;;;4913054;29;20111;-78
2021/05/11 06:20:01;;;;;;;3.28;0.35;;;11.00;99.90;;;;;;4909393;29;20882;-78
2021/05/11 06:22:26;;;;;;;1.85;0.47;;;11.10;99.90;;;;;;4930810;28;20058;-78
2021/05/11 06:24:52;;;;;;;1.83;0.40;;;11.10;99.90;;;;;;4941360;28;20536;-78
2021/05/11 06:27:19;;;;;;;1.75;0.40;;;11.20;99.90;;;;;;4942345;28;20030;-77
2021/05/11 06:29:46;;;;;;;2.03;0.40;;;11.20;99.90;;;;;;4946627;28;20045;-77
2021/05/11 06:32:13;;;;;;;2.20;0.50;;;11.30;99.90;;;;;;4941594;28;20019;-77
2021/05/11 06:34:44;;;;;;;1.33;0.20;;;11.30;99.90;;;;;;4935072;28;20062;-77
2021/05/11 06:37:10;;;;;;;4.83;0.37;;;11.20;99.90;;;;;;4935427;28;20434;-77
2021/05/11 06:39:36;;;;;;;3.03;0.20;;;11.10;99.90;;;;;;4946137;28;20066;-77
2021/05/11 06:42:02;;;;;;;0.95;0.30;;;11.20;99.90;;;;;;4939956;28;20024;-77
2021/05/11 06:44:55;;;;;;;1.60;0.30;;;11.20;99.90;;;;;;4941773;28;20054;-77
2021/05/11 06:47:51;;;;;;;4.38;0.30;;;11.20;99.90;;;;;;4943851;28;20038;-77
2021/05/11 06:50:38;;;;;;;1.63;0.30;;;11.20;99.90;;;;;;4949018;28;20114;-78
2021/05/11 06:53:12;;;;;;;1.35;0.40;;;11.30;99.90;;;;;;4936110;28;20043;-77
2021/05/11 06:55:43;;;;;;;2.42;0.82;;;11.40;99.90;;;;;;4941410;28;20493;-77
2021/05/11 06:58:10;;;;;;;4.00;0.65;;;11.40;99.90;;;;;;4941603;28;20039;-77
2021/05/11 07:00:40;;;;;;;2.58;0.60;;;11.40;99.90;;;;;;4940820;28;20503;-77
2021/05/11 07:03:06;;;;;;;3.13;0.75;;;11.40;99.90;;;;;;4932755;28;20367;-77
2021/05/11 07:05:34;;;;;;;3.05;0.70;;;11.40;99.90;;;;;;4937278;28;20613;-78
2021/05/11 07:08:16;;;;;;;2.83;0.90;;;11.30;99.90;;;;;;4938632;28;20083;-78
2021/05/11 07:10:46;;;;;;;4.25;0.80;;;11.30;99.90;;;;;;4939521;28;20086;-77
2021/05/11 07:13:13;;;;;;;2.45;1.20;;;11.40;99.90;;;;;;4943976;28;20035;-77
2021/05/11 07:15:42;;;;;;;2.92;0.50;;;11.40;99.90;;;;;;4937890;28;20426;-77
2021/05/11 07:18:12;;;;;;;2.08;0.40;;;11.50;99.90;;;;;;4934934;28;20071;-78
2021/05/11 07:20:39;;;;;;;1.65;0.30;;;11.50;99.90;;;;;;4937813;28;20516;-77
2021/05/11 07:23:04;;;;;;;3.50;0.45;;;11.60;99.90;;;;;;4939430;28;20058;-77
2021/05/11 07:25:38;;;;;;;1.10;0.30;;;11.60;99.90;;;;;;4940770;28;20155;-77
2021/05/11 07:30:38;;;;;;;1.58;0.30;;;11.60;99.90;;;;;;4941766;28;20049;-77
2021/05/11 07:33:06;;;;;;;1.88;0.30;;;11.60;99.90;;;;;;4937036;28;20035;-77
2021/05/11 07:35:32;;;;;;;3.28;0.40;;;11.50;99.90;;;;;;4942461;28;20035;-77
2021/05/11 07:37:57;;;;;;;4.07;0.60;;;11.50;99.90;;;;;;4943189;28;20053;-77
2021/05/11 07:40:23;;;;;;;4.45;0.50;;;11.40;99.90;;;;;;4943432;28;20063;-77
2021/05/11 07:42:49;;;;;;;1.48;0.30;;;11.50;99.90;;;;;;4940328;28;20043;-77
2021/05/11 07:46:04;;;;;;;1.38;0.35;;;11.50;99.90;;;;;;4942926;28;20293;-77
2021/05/11 08:04:30;;;;;;;3.28;0.70;;;11.50;99.90;;;;;;4936208;28;20078;-77
2021/05/11 08:17:45;;;;;;;3.75;0.50;;;11.20;99.90;;;;;;4937509;28;20385;-77
2021/05/11 08:28:29;;;;;;;2.65;0.30;;;11.10;99.90;;;;;;4940850;28;20055;-77
2021/05/11 08:30:54;;;;;;;1.25;0.30;;;11.20;99.90;;;;;;4939951;28;20392;-77
2021/05/11 08:33:20;;;;;;;3.00;0.38;;;11.20;99.90;;;;;;4929883;28;20054;-77
2021/05/11 08:35:49;;;;;;;4.07;1.50;;;11.30;99.90;;;;;;4939536;28;20046;-77
2021/05/11 08:38:15;;;;;;;5.07;1.27;;;11.40;99.90;;;;;;4940134;28;20031;-77
2021/05/11 08:40:40;;;;;;;3.53;0.95;;;11.50;99.90;;;;;;4944807;28;20473;-77
2021/05/11 08:43:29;;;;;;;2.45;0.70;;;11.60;99.90;;;;;;4938210;28;20462;-77
2021/05/11 08:45:56;;;;;;;4.25;1.10;;;11.60;99.90;;;;;;4945445;28;20031;-78
2021/05/11 08:48:23;;;;;;;2.38;0.80;;;11.70;99.90;;;;;;4935257;28;20110;-77
2021/05/11 08:50:56;;;;;;;1.65;0.47;;;11.80;99.90;;;;;;4931583;28;20504;-77
2021/05/11 09:04:38;;;;;;;2.28;0.30;;;12.20;99.90;;;;;;4943004;28;20117;-77
2021/05/11 09:24:32;;;;;;;1.52;0.57;;;12.10;99.90;;;;;;4942202;28;20532;-77
2021/05/11 09:32:41;;;;;;;2.60;0.60;;;12.10;99.90;;;;;;4940855;28;20118;-77
2021/05/11 10:44:24;;;;;;;1.25;0.30;;;13.20;99.90;;;;;;4935892;28;20038;-77
2021/05/11 10:47:03;;;;;;;3.28;0.40;;;13.40;99.90;;;;;;4944999;28;20520;-77
2021/05/11 10:49:35;;;;;;;1.48;0.40;;;13.80;99.90;;;;;;4937780;28;20031;-77
2021/05/11 10:52:15;;;;;;;0.73;0.32;;;13.90;99.90;;;;;;4942416;28;20114;-77
2021/05/11 10:55:11;;;;;;;1.50;0.30;;;13.90;99.90;;;;;;4939227;28;20035;-76
2021/05/11 10:57:54;;;;;;;1.58;0.30;;;13.90;99.90;;;;;;4940048;28;20039;-76
2021/05/11 11:00:32;;;;;;;;;;;13.90;99.90;;;;;;4943821;28;20082;-77
2021/05/11 11:03:27;;;;;;;1.77;0.30;;;14.00;99.90;;;;;;4936529;28;19968;-76
2021/05/11 11:05:55;;;;;;;0.82;0.20;;;14.20;99.90;;;;;;4937422;28;20067;-77
2021/05/11 11:08:33;;;;;;;1.17;0.30;;;14.20;99.90;;;;;;4940906;28;20568;-76
2021/05/11 11:11:21;;;;;;;0.82;0.20;;;14.20;99.90;;;;;;4944685;28;20154;-77
2021/05/11 11:13:50;;;;;;;2.05;0.30;;;14.30;99.90;;;;;;4943854;28;20543;-76
2021/05/11 11:16:17;;;;;;;1.55;0.40;;;14.30;99.90;;;;;;4951527;28;20647;-76
2021/05/11 11:18:46;;;;;;;2.63;0.30;;;14.30;99.90;;;;;;4948178;28;20038;-76
2021/05/11 11:21:22;;;;;;;1.40;0.30;;;14.40;99.90;;;;;;4947148;28;20505;-76
2021/05/11 11:23:53;;;;;;;1.45;0.30;;;14.30;99.90;;;;;;4938159;28;20078;-76
2021/05/11 11:26:26;;;;;;;0.90;0.30;;;14.40;99.90;;;;;;4937852;28;20107;-77
2021/05/11 11:28:59;;;;;;;3.83;0.50;;;14.40;99.90;;;;;;4939997;28;20115;-76
2021/05/11 11:31:28;;;;;;;2.85;0.40;;;14.30;99.90;;;;;;4940261;28;20065;-76
2021/05/11 11:34:13;;;;;;;3.00;0.50;;;14.30;99.90;;;;;;4941725;28;20058;-76
2021/05/11 11:36:39;;;;;;;1.73;0.40;;;14.20;99.90;;;;;;4943146;28;20039;-76
2021/05/11 11:39:05;;;;;;;2.30;0.40;;;14.30;99.90;;;;;;4941571;28;20523;-76
2021/05/11 11:41:31;;;;;;;3.95;0.50;;;14.30;99.90;;;;;;4940459;28;20036;-76
2021/05/11 11:43:57;;;;;;;5.03;0.70;;;14.30;99.90;;;;;;4943025;28;20031;-76
2021/05/11 11:46:24;;;;;;;2.78;0.40;;;14.20;99.90;;;;;;4946255;28;20035;-76
2021/05/11 11:48:56;;;;;;;0.75;0.30;;;14.10;99.90;;;;;;4943897;28;20499;-77
2021/05/11 11:51:26;;;;;;;2.03;0.47;;;14.10;99.90;;;;;;4939128;28;20043;-76
2021/05/11 11:54:07;;;;;;;4.70;0.60;;;14.10;99.90;;;;;;4939394;28;20075;-76
2021/05/11 11:57:45;;;;;;;1.73;0.40;;;14.20;99.90;;;;;;4940098;28;20067;-76
2021/05/11 11:59:34;;;;;;;2.53;0.30;;;14.00;99.90;;;;;;4932404;28;20122;-76
2021/05/11 12:02:02;;;;;;;3.10;0.50;;;14.00;99.90;;;;;;4941734;28;20130;-76
2021/05/11 12:04:28;;;;;;;2.25;0.47;;;14.10;99.90;;;;;;4945455;28;20027;-76
2021/05/11 12:07:00;;;;;;;5.03;0.43;;;14.10;99.90;;;;;;4940132;28;20233;-76
2021/05/11 12:09:26;;;;;;;2.30;0.40;;;14.00;99.90;;;;;;4940854;28;20071;-77
2021/05/11 12:11:51;;;;;;;2.03;0.35;;;14.00;99.90;;;;;;4934527;28;20141;-76
2021/05/11 12:14:17;;;;;;;2.70;0.80;;;14.10;99.90;;;;;;4941323;28;20046;-76
2021/05/11 12:16:44;;;;;;;1.88;0.40;;;14.10;99.90;;;;;;4938767;28;20093;-76
2021/05/11 12:19:13;;;;;;;1.85;0.38;;;14.00;99.90;;;;;;4928701;28;20111;-76
2021/05/11 12:22:02;;;;;;;3.17;0.63;;;14.00;99.90;;;;;;4943467;28;20043;-76
2021/05/11 12:24:35;;;;;;;3.10;0.40;;;14.10;99.90;;;;;;4943618;28;20437;-76
2021/05/11 12:27:20;;;;;;;3.25;0.43;;;14.20;99.90;;;;;;4941317;28;20157;-76
2021/05/11 12:30:01;;;;;;;2.38;0.52;;;14.10;99.90;;;;;;4932797;28;21079;-76
2021/05/11 12:32:27;;;;;;;3.57;0.40;;;14.10;99.90;;;;;;4939598;28;20097;-76
2021/05/11 12:35:22;;;;;;;0.98;0.38;;;14.10;99.90;;;;;;4933303;28;20043;-76
2021/05/11 12:37:50;;;;;;;2.20;0.40;;;14.20;99.90;;;;;;4930095;28;20047;-76
2021/05/11 12:40:24;;;;;;;2.90;0.43;;;14.20;99.90;;;;;;4930947;28;20036;-76
2021/05/11 12:42:50;;;;;;;1.33;0.40;;;14.10;99.90;;;;;;4938037;28;20154;-75
2021/05/11 12:45:16;;;;;;;5.97;0.70;;;14.10;99.90;;;;;;4939870;28;20117;-76
2021/05/11 12:47:46;;;;;;;5.15;0.80;;;14.00;99.90;;;;;;4939177;28;20077;-76
2021/05/11 12:50:27;;;;;;;3.65;0.52;;;14.00;99.90;;;;;;4937159;28;20127;-76
2021/05/11 12:52:54;;;;;;;7.70;0.70;;;14.00;99.90;;;;;;4939281;28;20039;-76
2021/05/11 12:56:03;;;;;;;3.35;0.75;;;14.00;99.90;;;;;;4939771;28;20043;-76
2021/05/11 13:01:55;;;;;;;6.00;3.10;;;13.90;99.90;;;;;;4945315;28;20077;-76
2021/05/11 13:16:07;;;;;;;5.00;0.70;;;13.70;99.90;;;;;;4941654;28;20057;-76
2021/05/11 13:21:18;;;;;;;10.32;3.20;;;13.70;99.90;;;;;;4947588;28;20070;-76
2021/05/11 13:26:50;;;;;;;5.82;0.82;;;13.50;99.90;;;;;;4936134;28;20044;-76
2021/05/11 13:32:00;;;;;;;8.30;1.00;;;13.30;99.90;;;;;;4945851;28;20050;-76
2021/05/11 13:34:26;;;;;;;4.68;1.13;;;13.30;99.90;;;;;;4947164;28;20030;-76
2021/05/11 13:36:51;;;;;;;15.50;1.35;;;13.20;99.90;;;;;;4946580;28;20047;-76
2021/05/11 13:39:17;;;;;;;2.45;0.50;;;13.10;99.90;;;;;;4943750;28;20066;-76
2021/05/11 13:41:44;;;;;;;3.65;0.60;;;13.10;99.90;;;;;;4940973;28;20604;-76
2021/05/11 13:44:10;;;;;;;5.63;0.55;;;13.00;99.90;;;;;;4941435;28;20521;-76
2021/05/11 13:46:36;;;;;;;4.32;0.50;;;13.00;99.90;;;;;;4939052;28;20043;-76
2021/05/11 13:49:02;;;;;;;1.92;0.50;;;12.90;99.90;;;;;;4944830;28;20541;-76
2021/05/11 13:51:28;;;;;;;3.58;0.80;;;12.80;99.90;;;;;;4948735;28;20110;-76
2021/05/11 13:53:57;;;;;;;5.90;0.80;;;12.80;99.90;;;;;;4944990;28;20110;-76
2021/05/11 13:56:50;;;;;;;2.63;0.60;;;12.80;99.90;;;;;;4949799;28;20082;-76
2021/05/11 14:02:35;;;;;;;1.83;0.60;;;12.90;99.90;;;;;;4946945;28;20416;-76
2021/05/11 14:04:46;;;;;;;1.63;0.35;;;12.80;99.90;;;;;;4940106;28;20059;-76
2021/05/11 14:07:11;;;;;;;2.05;0.40;;;12.60;99.90;;;;;;4944271;28;20101;-76
2021/05/11 14:09:37;;;;;;;3.13;0.30;;;12.70;99.90;;;;;;4943926;28;20477;-76
2021/05/11 14:12:03;;;;;;;0.52;0.20;;;12.60;99.90;;;;;;4946001;28;20043;-76
2021/05/11 14:14:29;;;;;;;1.80;0.30;;;12.60;99.90;;;;;;4943655;28;20063;-76
2021/05/11 14:16:55;;;;;;;2.03;0.40;;;12.60;99.90;;;;;;4947764;28;20069;-76
2021/05/11 14:19:20;;;;;;;4.78;0.60;;;12.70;99.90;;;;;;4938921;28;20760;-76
2021/05/11 14:21:46;;;;;;;2.08;0.43;;;12.70;99.90;;;;;;4948240;28;20389;-76
2021/05/11 14:24:12;;;;;;;2.20;0.40;;;12.50;99.90;;;;;;4944258;28;20031;-76
2021/05/11 14:26:39;;;;;;;1.33;0.43;;;12.50;99.90;;;;;;4946695;28;20115;-76
2021/05/11 14:29:04;;;;;;;0.90;0.32;;;12.40;99.90;;;;;;4942991;28;20067;-76
2021/05/11 14:31:30;;;;;;;4.00;0.57;;;12.30;99.90;;;;;;4944421;28;20043;-76
2021/05/11 14:33:56;;;;;;;5.25;0.95;;;12.40;99.90;;;;;;4938950;28;20429;-76
2021/05/11 14:36:22;;;;;;;2.83;0.88;;;12.30;99.90;;;;;;4938219;28;20035;-76
2021/05/11 14:38:48;;;;;;;9.77;3.80;;;12.30;99.90;;;;;;4939684;28;20036;-76
2021/05/11 14:41:14;;;;;;;6.93;2.38;;;12.30;99.90;;;;;;4939295;28;20035;-76
2021/05/11 14:43:40;;;;;;;2.30;0.70;;;12.30;99.90;;;;;;4945946;28;20035;-76
2021/05/11 14:46:07;;;;;;;4.18;1.15;;;12.30;99.90;;;;;;4943901;28;20069;-76
2021/05/11 14:48:33;;;;;;;1.92;0.60;;;12.40;99.90;;;;;;4935865;28;20035;-76
2021/05/11 14:51:00;;;;;;;5.47;2.38;;;12.40;99.90;;;;;;4943090;28;20047;-76
2021/05/11 14:53:27;;;;;;;6.80;3.28;;;12.50;99.90;;;;;;4941063;28;20362;-76
2021/05/11 14:55:54;;;;;;;3.40;0.93;;;12.60;99.90;;;;;;4947449;28;20499;-76
2021/05/11 14:58:20;;;;;;;5.00;1.95;;;12.70;99.90;;;;;;4943345;28;20039;-76
2021/05/11 15:00:46;;;;;;;12.32;6.60;;;12.70;99.90;;;;;;4940143;28;20031;-76
2021/05/11 15:03:13;;;;;;;13.13;6.50;;;12.80;99.90;;;;;;4944050;28;20027;-76
2021/05/11 15:05:39;;;;;;;7.25;2.80;;;12.90;99.90;;;;;;4944149;28;20248;-76
2021/05/11 15:08:05;;;;;;;1.13;0.40;;;13.00;99.90;;;;;;4945093;28;20111;-76
2021/05/11 15:10:32;;;;;;;1.75;0.30;;;13.10;99.90;;;;;;4945375;28;20031;-76
2021/05/11 15:12:58;;;;;;;1.23;0.30;;;13.10;99.90;;;;;;4943517;28;20098;-76
2021/05/11 15:15:24;;;;;;;2.50;0.30;;;13.20;99.90;;;;;;4940547;28;20261;-76
2021/05/11 15:20:18;;;;;;;1.17;0.40;;;13.30;99.90;;;;;;4940878;28;20251;-76
2021/05/11 15:22:45;;;;;;;3.80;0.80;;;13.30;99.90;;;;;;4940344;28;20049;-76
2021/05/11 15:25:10;;;;;;;2.67;0.50;;;13.30;99.90;;;;;;4940455;28;20027;-76
2021/05/11 15:27:36;;;;;;;5.65;0.40;;;13.20;99.90;;;;;;4942119;28;20035;-76
2021/05/11 15:30:06;;;;;;;5.60;0.32;;;13.20;99.90;;;;;;4939028;28;20126;-76
2021/05/11 15:32:41;;;;;;;0.47;0.20;;;13.30;99.90;;;;;;4950754;28;20041;-76
2021/05/11 15:35:18;;;;;;;1.27;0.20;;;13.20;99.90;;;;;;4935474;28;20142;-76
2021/05/11 15:37:52;;;;;;;3.42;0.30;;;13.10;99.90;;;;;;4935819;28;20130;-76
2021/05/11 15:40:19;;;;;;;2.08;0.30;;;13.40;99.90;;;;;;4932715;28;20036;-76
2021/05/11 15:42:45;;;;;;;3.75;0.40;;;13.40;99.90;;;;;;4935946;28;20580;-76
2021/05/11 15:45:11;;;;;;;2.47;0.22;;;13.50;99.90;;;;;;4934363;28;20035;-76
2021/05/11 15:47:38;;;;;;;0.70;0.30;;;13.60;99.90;;;;;;4945718;28;20042;-76
2021/05/11 15:50:07;;;;;;;0.40;0.17;;;13.50;99.90;;;;;;4941568;28;20070;-76
2021/05/11 15:52:33;;;;;;;0.75;0.20;;;13.50;99.90;;;;;;4936371;28;20039;-76
2021/05/11 15:54:58;;;;;;;0.77;0.20;;;13.50;99.90;;;;;;4937568;28;20370;-76
2021/05/11 15:57:24;;;;;;;0.73;0.30;;;13.60;99.90;;;;;;4939653;28;20077;-76
2021/05/11 15:59:50;;;;;;;1.65;0.30;;;13.80;99.90;;;;;;4945036;28;20126;-76
2021/05/11 16:02:15;;;;;;;0.93;0.20;;;13.90;99.90;;;;;;4939252;28;20465;-76
2021/05/11 16:04:41;;;;;;;0.63;0.20;;;14.00;99.90;;;;;;4941454;28;20091;-76
2021/05/11 16:07:07;;;;;;;0.63;0.20;;;14.00;99.90;;;;;;4941066;28;20042;-76
2021/05/11 16:09:32;;;;;;;0.88;0.30;;;13.90;99.90;;;;;;4938363;28;20044;-76
2021/05/11 16:11:58;;;;;;;0.45;0.15;;;14.00;99.90;;;;;;4940702;28;20350;-76
2021/05/11 16:14:24;;;;;;;2.50;0.35;;;14.00;99.90;;;;;;4939709;28;20062;-76
2021/05/11 16:16:49;;;;;;;3.22;0.30;;;14.00;99.90;;;;;;4934567;28;20160;-76
2021/05/11 16:19:15;;;;;;;5.93;0.20;;;13.90;99.90;;;;;;4935981;28;20036;-76
2021/05/11 16:21:41;;;;;;;2.50;0.30;;;13.90;99.90;;;;;;4937217;28;20038;-76
2021/05/11 16:24:07;;;;;;;2.65;0.43;;;13.90;99.90;;;;;;4937986;28;20023;-76
2021/05/11 16:26:33;;;;;;;2.35;0.47;;;13.90;99.90;;;;;;4934220;28;20529;-76
2021/05/11 16:28:58;;;;;;;1.25;0.40;;;13.90;99.90;;;;;;4938966;28;20486;-76
2021/05/11 16:31:24;;;;;;;2.25;0.60;;;13.80;99.90;;;;;;4941177;28;20035;-76
2021/05/11 16:33:51;;;;;;;2.50;0.30;;;13.50;99.90;;;;;;4941530;28;21652;-76
2021/05/11 16:36:16;;;;;;;1.92;0.30;;;13.10;99.90;;;;;;4930548;28;20504;-76
2021/05/11 16:38:42;;;;;;;1.20;0.20;;;12.90;99.90;;;;;;4934719;28;20613;-76
2021/05/11 16:41:09;;;;;;;1.55;0.30;;;12.60;99.90;;;;;;4934529;28;20126;-76
2021/05/11 16:43:35;;;;;;;0.68;0.20;;;12.30;99.90;;;;;;4937259;28;20039;-76
2021/05/11 16:46:06;;;;;;;2.58;0.45;;;12.10;99.90;;;;;;4931771;28;20031;-76
2021/05/11 16:48:33;;;;;;;1.25;0.30;;;12.00;99.90;;;;;;4935150;28;20039;-76
2021/05/11 16:51:00;;;;;;;5.88;0.43;;;11.80;99.90;;;;;;4940926;28;20038;-76
2021/05/11 16:53:27;;;;;;;5.07;0.47;;;11.70;99.90;;;;;;4945688;28;20031;-76
2021/05/11 16:55:53;;;;;;;5.18;0.10;;;11.60;99.90;;;;;;4940550;28;20026;-76
2021/05/11 16:58:19;;;;;;;2.40;0.30;;;11.50;99.90;;;;;;4941052;28;20560;-76